sensor_id;sensor_type;location;lat;lon;timestamp;temperature;humidity
18577;DHT22;9418;52.694;13.294;2023-01-04T00:01:26;3.90;58.20
18577;DHT22;9418;52.694;13.294;2023-01-04T00:03:52;3.90;58.50
18577;DHT22;9418;52.694;13.294;2023-01-04T00:06:19;3.90;59.40
18577;DHT22;9418;52.694;13.294;2023-01-04T00:08:45;3.90;60.20
18577;DHT22;9418;52.694;13.294;2023-01-04T00:11:13;3.90;59.10
18577;DHT22;9418;52.694;13.294;2023-01-04T00:13:42;3.90;61.30
18577;DHT22;9418;52.694;13.294;2023-01-04T00:16:12;3.90;61.40
18577;DHT22;9418;52.694;13.294;2023-01-04T00:18:40;3.90;61.30
18577;DHT22;9418;52.694;13.294;2023-01-04T00:21:09;3.90;61.70
18577;DHT22;9418;52.694;13.294;2023-01-04T00:23:36;3.80;61.60
18577;DHT22;9418;52.694;13.294;2023-01-04T00:26:06;3.80;61.20
18577;DHT22;9418;52.694;13.294;2023-01-04T00:28:33;3.80;60.90
18577;DHT22;9418;52.694;13.294;2023-01-04T00:31:01;3.80;61.20
18577;DHT22;9418;52.694;13.294;2023-01-04T00:33:30;3.70;62.00
18577;DHT22;9418;52.694;13.294;2023-01-04T00:36:01;3.70;61.10
18577;DHT22;9418;52.694;13.294;2023-01-04T00:38:28;3.70;61.10
18577;DHT22;9418;52.694;13.294;2023-01-04T00:40:54;3.60;61.60
18577;DHT22;9418;52.694;13.294;2023-01-04T00:43:21;3.70;61.30
18577;DHT22;9418;52.694;13.294;2023-01-04T00:45:48;3.70;61.90
18577;DHT22;9418;52.694;13.294;2023-01-04T00:48:14;3.70;59.80
18577;DHT22;9418;52.694;13.294;2023-01-04T00:50:43;3.70;60.20
18577;DHT22;9418;52.694;13.294;2023-01-04T00:53:10;3.70;61.00
18577;DHT22;9418;52.694;13.294;2023-01-04T00:55:37;3.70;59.90
18577;DHT22;9418;52.694;13.294;2023-01-04T00:58:04;3.70;60.90
18577;DHT22;9418;52.694;13.294;2023-01-04T01:00:30;3.70;59.80
18577;DHT22;9418;52.694;13.294;2023-01-04T01:02:57;3.70;60.20
18577;DHT22;9418;52.694;13.294;2023-01-04T01:05:24;3.80;59.20
18577;DHT22;9418;52.694;13.294;2023-01-04T01:07:52;3.80;59.20
18577;DHT22;9418;52.694;13.294;2023-01-04T01:10:18;3.80;59.70
18577;DHT22;9418;52.694;13.294;2023-01-04T01:12:45;3.90;60.00
18577;DHT22;9418;52.694;13.294;2023-01-04T01:15:11;3.90;59.90
18577;DHT22;9418;52.694;13.294;2023-01-04T01:17:38;4.00;59.70
18577;DHT22;9418;52.694;13.294;2023-01-04T01:20:05;4.00;59.70
18577;DHT22;9418;52.694;13.294;2023-01-04T01:22:34;4.10;60.70
18577;DHT22;9418;52.694;13.294;2023-01-04T01:25:02;4.10;61.20
18577;DHT22;9418;52.694;13.294;2023-01-04T01:27:29;4.10;62.10
18577;DHT22;9418;52.694;13.294;2023-01-04T01:29:56;4.10;63.90
18577;DHT22;9418;52.694;13.294;2023-01-04T01:32:23;4.10;64.10
18577;DHT22;9418;52.694;13.294;2023-01-04T01:34:49;4.10;63.80
18577;DHT22;9418;52.694;13.294;2023-01-04T01:37:16;4.10;64.80
18577;DHT22;9418;52.694;13.294;2023-01-04T01:39:42;4.10;65.60
18577;DHT22;9418;52.694;13.294;2023-01-04T01:42:17;4.10;65.30
18577;DHT22;9418;52.694;13.294;2023-01-04T01:45:04;4.00;66.60
18577;DHT22;9418;52.694;13.294;2023-01-04T01:47:39;4.00;64.70
18577;DHT22;9418;52.694;13.294;2023-01-04T01:50:18;4.10;64.90
18577;DHT22;9418;52.694;13.294;2023-01-04T01:52:46;4.00;65.80
18577;DHT22;9418;52.694;13.294;2023-01-04T01:55:13;3.90;67.60
18577;DHT22;9418;52.694;13.294;2023-01-04T01:57:43;3.90;66.50
18577;DHT22;9418;52.694;13.294;2023-01-04T02:00:13;3.90;66.50
18577;DHT22;9418;52.694;13.294;2023-01-04T02:02:43;3.80;67.00
18577;DHT22;9418;52.694;13.294;2023-01-04T02:05:10;3.80;66.50
18577;DHT22;9418;52.694;13.294;2023-01-04T02:07:37;3.80;65.40
18577;DHT22;9418;52.694;13.294;2023-01-04T02:10:05;3.70;64.30
18577;DHT22;9418;52.694;13.294;2023-01-04T02:12:32;3.70;63.30
18577;DHT22;9418;52.694;13.294;2023-01-04T02:15:00;3.70;64.50
18577;DHT22;9418;52.694;13.294;2023-01-04T02:17:34;3.70;60.10
18577;DHT22;9418;52.694;13.294;2023-01-04T02:20:28;3.80;60.90
18577;DHT22;9418;52.694;13.294;2023-01-04T02:23:27;3.80;59.80
18577;DHT22;9418;52.694;13.294;2023-01-04T02:29:04;3.90;59.30
18577;DHT22;9418;52.694;13.294;2023-01-04T02:31:44;3.90;60.20
18577;DHT22;9418;52.694;13.294;2023-01-04T02:34:17;4.00;61.00
18577;DHT22;9418;52.694;13.294;2023-01-04T02:36:52;4.10;63.70
18577;DHT22;9418;52.694;13.294;2023-01-04T02:39:31;4.00;66.20
18577;DHT22;9418;52.694;13.294;2023-01-04T02:42:05;4.00;67.60
18577;DHT22;9418;52.694;13.294;2023-01-04T02:44:37;4.00;68.70
18577;DHT22;9418;52.694;13.294;2023-01-04T02:47:22;4.00;69.10
18577;DHT22;9418;52.694;13.294;2023-01-04T02:50:15;4.00;71.10
18577;DHT22;9418;52.694;13.294;2023-01-04T02:53:00;4.00;69.40
18577;DHT22;9418;52.694;13.294;2023-01-04T02:55:35;4.00;71.00
18577;DHT22;9418;52.694;13.294;2023-01-04T02:58:09;4.00;70.60
18577;DHT22;9418;52.694;13.294;2023-01-04T03:00:47;4.00;71.70
18577;DHT22;9418;52.694;13.294;2023-01-04T03:03:47;4.00;72.90
18577;DHT22;9418;52.694;13.294;2023-01-04T03:06:39;4.00;75.40
18577;DHT22;9418;52.694;13.294;2023-01-04T03:09:12;4.10;77.10
18577;DHT22;9418;52.694;13.294;2023-01-04T03:11:42;4.10;78.80
18577;DHT22;9418;52.694;13.294;2023-01-04T03:14:29;4.10;79.30
18577;DHT22;9418;52.694;13.294;2023-01-04T03:17:00;4.00;79.40
18577;DHT22;9418;52.694;13.294;2023-01-04T03:19:30;4.00;79.10
18577;DHT22;9418;52.694;13.294;2023-01-04T03:22:16;4.10;79.40
18577;DHT22;9418;52.694;13.294;2023-01-04T03:24:58;4.20;85.20
18577;DHT22;9418;52.694;13.294;2023-01-04T03:27:46;4.10;85.40
18577;DHT22;9418;52.694;13.294;2023-01-04T03:30:34;4.10;84.40
18577;DHT22;9418;52.694;13.294;2023-01-04T03:33:21;4.30;87.10
18577;DHT22;9418;52.694;13.294;2023-01-04T03:36:11;4.20;90.80
18577;DHT22;9418;52.694;13.294;2023-01-04T03:38:45;4.20;88.90
18577;DHT22;9418;52.694;13.294;2023-01-04T03:41:41;4.20;90.30
18577;DHT22;9418;52.694;13.294;2023-01-04T03:44:30;4.30;90.00
18577;DHT22;9418;52.694;13.294;2023-01-04T03:47:18;4.30;92.20
18577;DHT22;9418;52.694;13.294;2023-01-04T03:50:08;4.30;92.60
18577;DHT22;9418;52.694;13.294;2023-01-04T03:52:39;4.30;92.40
18577;DHT22;9418;52.694;13.294;2023-01-04T03:55:08;4.30;92.80
18577;DHT22;9418;52.694;13.294;2023-01-04T03:57:35;4.30;93.30
18577;DHT22;9418;52.694;13.294;2023-01-04T04:00:07;4.30;92.10
18577;DHT22;9418;52.694;13.294;2023-01-04T04:02:35;4.30;92.60
18577;DHT22;9418;52.694;13.294;2023-01-04T04:05:02;4.30;91.30
18577;DHT22;9418;52.694;13.294;2023-01-04T04:07:48;4.40;94.10
18577;DHT22;9418;52.694;13.294;2023-01-04T04:10:32;4.50;99.00
18577;DHT22;9418;52.694;13.294;2023-01-04T04:12:58;4.60;99.90
18577;DHT22;9418;52.694;13.294;2023-01-04T04:15:25;4.50;99.90
18577;DHT22;9418;52.694;13.294;2023-01-04T04:17:52;4.50;99.90
18577;DHT22;9418;52.694;13.294;2023-01-04T04:20:18;4.50;99.90
18577;DHT22;9418;52.694;13.294;2023-01-04T04:22:45;4.40;99.90
18577;DHT22;9418;52.694;13.294;2023-01-04T04:25:13;4.40;99.80
18577;DHT22;9418;52.694;13.294;2023-01-04T04:27:39;4.40;99.30
18577;DHT22;9418;52.694;13.294;2023-01-04T04:30:07;4.40;99.90
18577;DHT22;9418;52.694;13.294;2023-01-04T04:32:33;4.40;99.90
18577;DHT22;9418;52.694;13.294;2023-01-04T04:35:00;4.40;99.30
18577;DHT22;9418;52.694;13.294;2023-01-04T04:37:26;4.40;98.20
18577;DHT22;9418;52.694;13.294;2023-01-04T04:39:56;4.40;98.40
18577;DHT22;9418;52.694;13.294;2023-01-04T04:42:24;4.40;98.70
18577;DHT22;9418;52.694;13.294;2023-01-04T04:44:49;4.40;96.50
18577;DHT22;9418;52.694;13.294;2023-01-04T04:47:16;4.40;97.00
18577;DHT22;9418;52.694;13.294;2023-01-04T04:49:42;4.40;97.50
18577;DHT22;9418;52.694;13.294;2023-01-04T04:52:09;4.40;97.60
18577;DHT22;9418;52.694;13.294;2023-01-04T04:54:36;4.50;98.60
18577;DHT22;9418;52.694;13.294;2023-01-04T04:57:02;4.50;99.20
18577;DHT22;9418;52.694;13.294;2023-01-04T04:59:31;4.50;97.40
18577;DHT22;9418;52.694;13.294;2023-01-04T05:01:57;4.50;99.90
18577;DHT22;9418;52.694;13.294;2023-01-04T05:04:24;4.60;99.90
18577;DHT22;9418;52.694;13.294;2023-01-04T05:06:50;4.60;99.90
18577;DHT22;9418;52.694;13.294;2023-01-04T05:09:18;4.60;99.90
18577;DHT22;9418;52.694;13.294;2023-01-04T05:11:45;4.60;99.90
18577;DHT22;9418;52.694;13.294;2023-01-04T05:14:30;4.70;99.90
18577;DHT22;9418;52.694;13.294;2023-01-04T05:16:57;4.80;99.90
18577;DHT22;9418;52.694;13.294;2023-01-04T05:19:24;4.80;99.90
18577;DHT22;9418;52.694;13.294;2023-01-04T05:21:50;4.80;99.90
18577;DHT22;9418;52.694;13.294;2023-01-04T05:24:17;4.90;99.90
18577;DHT22;9418;52.694;13.294;2023-01-04T05:26:43;4.90;99.90
18577;DHT22;9418;52.694;13.294;2023-01-04T05:29:10;4.90;99.90
18577;DHT22;9418;52.694;13.294;2023-01-04T05:31:58;5.00;99.90
18577;DHT22;9418;52.694;13.294;2023-01-04T05:34:23;5.00;99.90
18577;DHT22;9418;52.694;13.294;2023-01-04T05:36:50;5.00;99.90
18577;DHT22;9418;52.694;13.294;2023-01-04T05:39:16;5.00;99.90
18577;DHT22;9418;52.694;13.294;2023-01-04T05:41:43;5.10;99.90
18577;DHT22;9418;52.694;13.294;2023-01-04T05:44:27;5.10;99.90
18577;DHT22;9418;52.694;13.294;2023-01-04T05:46:54;5.10;99.90
18577;DHT22;9418;52.694;13.294;2023-01-04T05:49:22;5.20;99.90
18577;DHT22;9418;52.694;13.294;2023-01-04T05:51:48;5.20;99.90
18577;DHT22;9418;52.694;13.294;2023-01-04T05:54:15;5.30;99.90
18577;DHT22;9418;52.694;13.294;2023-01-04T05:56:42;5.30;99.90
18577;DHT22;9418;52.694;13.294;2023-01-04T05:59:08;5.30;99.90
18577;DHT22;9418;52.694;13.294;2023-01-04T06:01:35;5.30;99.90
18577;DHT22;9418;52.694;13.294;2023-01-04T06:04:01;5.30;99.90
18577;DHT22;9418;52.694;13.294;2023-01-04T06:06:29;5.40;99.90
18577;DHT22;9418;52.694;13.294;2023-01-04T06:08:56;5.40;99.90
18577;DHT22;9418;52.694;13.294;2023-01-04T06:11:22;5.40;99.90
18577;DHT22;9418;52.694;13.294;2023-01-04T06:13:49;5.40;99.90
18577;DHT22;9418;52.694;13.294;2023-01-04T06:16:15;5.40;99.90
18577;DHT22;9418;52.694;13.294;2023-01-04T06:18:42;5.40;99.90
18577;DHT22;9418;52.694;13.294;2023-01-04T06:21:09;5.30;99.90
18577;DHT22;9418;52.694;13.294;2023-01-04T06:23:37;5.40;99.90
18577;DHT22;9418;52.694;13.294;2023-01-04T06:26:03;5.40;99.90
18577;DHT22;9418;52.694;13.294;2023-01-04T06:28:30;5.30;99.90
18577;DHT22;9418;52.694;13.294;2023-01-04T06:30:57;5.30;99.90
18577;DHT22;9418;52.694;13.294;2023-01-04T06:33:23;5.30;99.90
18577;DHT22;9418;52.694;13.294;2023-01-04T06:35:53;5.40;99.90
18577;DHT22;9418;52.694;13.294;2023-01-04T06:38:20;5.30;99.90
18577;DHT22;9418;52.694;13.294;2023-01-04T06:40:48;5.40;99.90
18577;DHT22;9418;52.694;13.294;2023-01-04T06:43:15;5.40;99.90
18577;DHT22;9418;52.694;13.294;2023-01-04T06:45:42;5.40;99.90
18577;DHT22;9418;52.694;13.294;2023-01-04T06:48:09;5.40;99.90
18577;DHT22;9418;52.694;13.294;2023-01-04T06:50:35;5.50;99.90
18577;DHT22;9418;52.694;13.294;2023-01-04T06:53:02;5.60;99.90
18577;DHT22;9418;52.694;13.294;2023-01-04T06:55:29;5.60;99.90
18577;DHT22;9418;52.694;13.294;2023-01-04T06:57:57;5.70;99.90
18577;DHT22;9418;52.694;13.294;2023-01-04T07:00:24;5.70;99.90
18577;DHT22;9418;52.694;13.294;2023-01-04T07:02:50;5.70;99.90
18577;DHT22;9418;52.694;13.294;2023-01-04T07:05:17;5.70;99.90
18577;DHT22;9418;52.694;13.294;2023-01-04T07:07:43;5.70;99.90
18577;DHT22;9418;52.694;13.294;2023-01-04T07:10:10;5.60;99.90
18577;DHT22;9418;52.694;13.294;2023-01-04T07:12:37;5.60;99.90
18577;DHT22;9418;52.694;13.294;2023-01-04T07:15:06;5.60;99.90
18577;DHT22;9418;52.694;13.294;2023-01-04T07:17:33;5.60;99.90
18577;DHT22;9418;52.694;13.294;2023-01-04T07:20:00;5.60;99.90
18577;DHT22;9418;52.694;13.294;2023-01-04T07:22:28;5.60;99.90
18577;DHT22;9418;52.694;13.294;2023-01-04T07:24:55;5.50;85.80
18577;DHT22;9418;52.694;13.294;2023-01-04T07:27:21;5.40;79.00
18577;DHT22;9418;52.694;13.294;2023-01-04T07:29:48;5.40;72.60
18577;DHT22;9418;52.694;13.294;2023-01-04T07:32:16;5.30;72.60
18577;DHT22;9418;52.694;13.294;2023-01-04T07:34:42;5.30;61.60
18577;DHT22;9418;52.694;13.294;2023-01-04T07:37:09;5.30;58.80
18577;DHT22;9418;52.694;13.294;2023-01-04T07:39:37;5.30;56.30
18577;DHT22;9418;52.694;13.294;2023-01-04T07:42:04;5.20;52.70
18577;DHT22;9418;52.694;13.294;2023-01-04T07:44:31;5.20;46.10
18577;DHT22;9418;52.694;13.294;2023-01-04T07:46:57;5.20;44.90
18577;DHT22;9418;52.694;13.294;2023-01-04T07:49:25;5.20;44.20
18577;DHT22;9418;52.694;13.294;2023-01-04T07:51:52;5.20;43.60
18577;DHT22;9418;52.694;13.294;2023-01-04T07:54:19;5.20;41.30
18577;DHT22;9418;52.694;13.294;2023-01-04T07:56:46;5.20;40.80
18577;DHT22;9418;52.694;13.294;2023-01-04T07:59:15;5.20;40.10
18577;DHT22;9418;52.694;13.294;2023-01-04T08:01:42;5.20;39.90
18577;DHT22;9418;52.694;13.294;2023-01-04T08:04:11;5.30;39.50
18577;DHT22;9418;52.694;13.294;2023-01-04T08:06:40;5.30;39.20
18577;DHT22;9418;52.694;13.294;2023-01-04T08:09:07;5.30;39.00
18577;DHT22;9418;52.694;13.294;2023-01-04T08:14:11;5.30;38.80
18577;DHT22;9418;52.694;13.294;2023-01-04T08:16:39;5.40;39.30
18577;DHT22;9418;52.694;13.294;2023-01-04T08:19:09;5.40;38.20
18577;DHT22;9418;52.694;13.294;2023-01-04T08:21:38;5.50;40.50
18577;DHT22;9418;52.694;13.294;2023-01-04T08:24:06;5.50;42.30
18577;DHT22;9418;52.694;13.294;2023-01-04T08:26:32;5.50;42.20
18577;DHT22;9418;52.694;13.294;2023-01-04T08:28:59;5.50;42.20
18577;DHT22;9418;52.694;13.294;2023-01-04T08:31:28;5.60;41.80
18577;DHT22;9418;52.694;13.294;2023-01-04T08:33:55;5.60;42.30
18577;DHT22;9418;52.694;13.294;2023-01-04T08:36:23;5.60;42.50
18577;DHT22;9418;52.694;13.294;2023-01-04T08:38:54;5.70;42.20
18577;DHT22;9418;52.694;13.294;2023-01-04T08:41:20;5.70;42.10
18577;DHT22;9418;52.694;13.294;2023-01-04T08:43:47;5.70;41.10
18577;DHT22;9418;52.694;13.294;2023-01-04T08:46:14;5.80;42.20
18577;DHT22;9418;52.694;13.294;2023-01-04T08:48:41;5.80;42.40
18577;DHT22;9418;52.694;13.294;2023-01-04T08:51:10;5.80;42.60
18577;DHT22;9418;52.694;13.294;2023-01-04T08:53:36;5.80;44.00
18577;DHT22;9418;52.694;13.294;2023-01-04T08:56:06;5.80;44.10
18577;DHT22;9418;52.694;13.294;2023-01-04T08:58:34;5.90;43.20
18577;DHT22;9418;52.694;13.294;2023-01-04T09:01:01;5.90;42.10
18577;DHT22;9418;52.694;13.294;2023-01-04T09:03:29;5.90;44.50
18577;DHT22;9418;52.694;13.294;2023-01-04T09:06:01;5.90;44.90
18577;DHT22;9418;52.694;13.294;2023-01-04T09:08:29;5.90;46.10
18577;DHT22;9418;52.694;13.294;2023-01-04T09:10:56;6.00;46.70
18577;DHT22;9418;52.694;13.294;2023-01-04T09:13:24;6.00;45.40
18577;DHT22;9418;52.694;13.294;2023-01-04T09:15:51;6.00;45.40
18577;DHT22;9418;52.694;13.294;2023-01-04T09:18:17;6.00;45.10
18577;DHT22;9418;52.694;13.294;2023-01-04T09:20:44;6.00;44.90
18577;DHT22;9418;52.694;13.294;2023-01-04T09:23:11;6.10;45.10
18577;DHT22;9418;52.694;13.294;2023-01-04T09:25:38;6.10;45.70
18577;DHT22;9418;52.694;13.294;2023-01-04T09:28:05;6.10;46.80
18577;DHT22;9418;52.694;13.294;2023-01-04T09:30:33;6.10;46.30
18577;DHT22;9418;52.694;13.294;2023-01-04T09:32:59;6.20;45.40
18577;DHT22;9418;52.694;13.294;2023-01-04T09:35:26;6.10;44.90
18577;DHT22;9418;52.694;13.294;2023-01-04T09:37:53;6.20;45.90
18577;DHT22;9418;52.694;13.294;2023-01-04T09:40:26;6.20;47.30
18577;DHT22;9418;52.694;13.294;2023-01-04T09:42:54;6.20;45.70
18577;DHT22;9418;52.694;13.294;2023-01-04T09:45:23;6.30;46.20
18577;DHT22;9418;52.694;13.294;2023-01-04T09:47:55;6.30;45.70
18577;DHT22;9418;52.694;13.294;2023-01-04T09:50:26;6.30;45.70
18577;DHT22;9418;52.694;13.294;2023-01-04T09:53:03;6.30;45.80
18577;DHT22;9418;52.694;13.294;2023-01-04T09:55:35;6.30;46.10
18577;DHT22;9418;52.694;13.294;2023-01-04T09:58:06;6.30;47.50
18577;DHT22;9418;52.694;13.294;2023-01-04T10:00:41;6.30;48.20
18577;DHT22;9418;52.694;13.294;2023-01-04T10:03:14;6.30;49.40
18577;DHT22;9418;52.694;13.294;2023-01-04T10:05:42;6.30;49.60
18577;DHT22;9418;52.694;13.294;2023-01-04T10:08:13;6.30;50.00
18577;DHT22;9418;52.694;13.294;2023-01-04T10:10:47;6.30;50.40
18577;DHT22;9418;52.694;13.294;2023-01-04T10:13:25;6.40;52.20
18577;DHT22;9418;52.694;13.294;2023-01-04T10:16:02;6.40;51.80
18577;DHT22;9418;52.694;13.294;2023-01-04T10:18:38;6.40;51.40
18577;DHT22;9418;52.694;13.294;2023-01-04T10:21:23;6.50;51.00
18577;DHT22;9418;52.694;13.294;2023-01-04T10:24:01;6.50;51.30
18577;DHT22;9418;52.694;13.294;2023-01-04T10:26:37;6.50;51.20
18577;DHT22;9418;52.694;13.294;2023-01-04T10:29:21;6.50;50.20
18577;DHT22;9418;52.694;13.294;2023-01-04T10:31:54;6.50;50.70
18577;DHT22;9418;52.694;13.294;2023-01-04T10:34:26;6.60;50.20
18577;DHT22;9418;52.694;13.294;2023-01-04T10:36:56;6.60;48.70
18577;DHT22;9418;52.694;13.294;2023-01-04T10:39:28;6.60;47.50
18577;DHT22;9418;52.694;13.294;2023-01-04T10:41:58;6.60;44.60
18577;DHT22;9418;52.694;13.294;2023-01-04T10:44:32;6.60;45.30
18577;DHT22;9418;52.694;13.294;2023-01-04T10:47:06;6.60;44.90
18577;DHT22;9418;52.694;13.294;2023-01-04T10:49:40;6.60;45.60
18577;DHT22;9418;52.694;13.294;2023-01-04T10:52:11;6.60;46.80
18577;DHT22;9418;52.694;13.294;2023-01-04T10:54:42;6.60;47.20
18577;DHT22;9418;52.694;13.294;2023-01-04T10:57:13;6.70;47.60
18577;DHT22;9418;52.694;13.294;2023-01-04T10:59:44;6.70;47.80
18577;DHT22;9418;52.694;13.294;2023-01-04T11:02:17;6.70;47.20
18577;DHT22;9418;52.694;13.294;2023-01-04T11:04:54;6.70;47.40
18577;DHT22;9418;52.694;13.294;2023-01-04T11:07:25;6.70;46.30
18577;DHT22;9418;52.694;13.294;2023-01-04T11:09:56;6.70;47.10
18577;DHT22;9418;52.694;13.294;2023-01-04T11:12:25;6.70;47.30
18577;DHT22;9418;52.694;13.294;2023-01-04T11:14:52;6.70;47.20
18577;DHT22;9418;52.694;13.294;2023-01-04T11:17:19;6.80;47.90
18577;DHT22;9418;52.694;13.294;2023-01-04T11:19:46;6.80;47.20
18577;DHT22;9418;52.694;13.294;2023-01-04T11:22:18;6.70;47.30
18577;DHT22;9418;52.694;13.294;2023-01-04T11:24:49;6.80;46.30
18577;DHT22;9418;52.694;13.294;2023-01-04T11:27:21;6.80;44.50
18577;DHT22;9418;52.694;13.294;2023-01-04T11:29:53;6.80;44.50
18577;DHT22;9418;52.694;13.294;2023-01-04T11:32:32;6.80;44.80
18577;DHT22;9418;52.694;13.294;2023-01-04T11:35:00;6.90;45.00
18577;DHT22;9418;52.694;13.294;2023-01-04T11:37:29;6.90;45.40
18577;DHT22;9418;52.694;13.294;2023-01-04T11:40:21;6.80;45.50
18577;DHT22;9418;52.694;13.294;2023-01-04T11:42:50;6.90;45.70
18577;DHT22;9418;52.694;13.294;2023-01-04T11:45:21;6.90;46.60
18577;DHT22;9418;52.694;13.294;2023-01-04T11:47:49;6.90;46.80
18577;DHT22;9418;52.694;13.294;2023-01-04T11:50:34;6.90;46.90
18577;DHT22;9418;52.694;13.294;2023-01-04T11:53:21;6.90;46.50
18577;DHT22;9418;52.694;13.294;2023-01-04T11:55:49;7.00;46.80
18577;DHT22;9418;52.694;13.294;2023-01-04T11:58:16;7.00;46.00
18577;DHT22;9418;52.694;13.294;2023-01-04T12:00:50;7.00;46.40
18577;DHT22;9418;52.694;13.294;2023-01-04T12:03:21;7.00;46.90
18577;DHT22;9418;52.694;13.294;2023-01-04T12:05:49;7.00;46.80
18577;DHT22;9418;52.694;13.294;2023-01-04T12:08:26;7.10;47.70
18577;DHT22;9418;52.694;13.294;2023-01-04T12:10:53;7.10;47.80
18577;DHT22;9418;52.694;13.294;2023-01-04T12:13:20;7.10;48.10
18577;DHT22;9418;52.694;13.294;2023-01-04T12:15:55;7.10;49.30
18577;DHT22;9418;52.694;13.294;2023-01-04T12:18:26;7.10;49.20
18577;DHT22;9418;52.694;13.294;2023-01-04T12:20:55;7.10;49.90
18577;DHT22;9418;52.694;13.294;2023-01-04T12:23:23;7.20;50.70
18577;DHT22;9418;52.694;13.294;2023-01-04T12:25:50;7.10;52.00
18577;DHT22;9418;52.694;13.294;2023-01-04T12:28:31;7.20;52.30
18577;DHT22;9418;52.694;13.294;2023-01-04T12:31:30;7.20;53.30
18577;DHT22;9418;52.694;13.294;2023-01-04T12:36:54;7.30;54.10
18577;DHT22;9418;52.694;13.294;2023-01-04T12:39:34;7.30;54.70
18577;DHT22;9418;52.694;13.294;2023-01-04T12:42:19;7.30;54.50
18577;DHT22;9418;52.694;13.294;2023-01-04T12:47:49;7.40;54.10
18577;DHT22;9418;52.694;13.294;2023-01-04T12:53:50;7.40;54.20
18577;DHT22;9418;52.694;13.294;2023-01-04T12:56:18;7.40;53.70
18577;DHT22;9418;52.694;13.294;2023-01-04T12:59:07;7.40;54.90
18577;DHT22;9418;52.694;13.294;2023-01-04T13:01:35;7.40;54.20
18577;DHT22;9418;52.694;13.294;2023-01-04T13:06:49;7.50;53.80
18577;DHT22;9418;52.694;13.294;2023-01-04T13:09:17;7.50;52.30
18577;DHT22;9418;52.694;13.294;2023-01-04T13:12:12;7.50;51.10
18577;DHT22;9418;52.694;13.294;2023-01-04T13:14:43;7.50;51.40
18577;DHT22;9418;52.694;13.294;2023-01-04T13:17:15;7.50;52.20
18577;DHT22;9418;52.694;13.294;2023-01-04T13:19:43;7.60;51.90
18577;DHT22;9418;52.694;13.294;2023-01-04T13:22:16;7.60;51.00
18577;DHT22;9418;52.694;13.294;2023-01-04T13:24:44;7.60;51.50
18577;DHT22;9418;52.694;13.294;2023-01-04T13:27:16;7.60;51.10
18577;DHT22;9418;52.694;13.294;2023-01-04T13:29:44;7.60;50.80
18577;DHT22;9418;52.694;13.294;2023-01-04T13:32:14;7.60;51.00
18577;DHT22;9418;52.694;13.294;2023-01-04T13:34:49;7.60;50.90
18577;DHT22;9418;52.694;13.294;2023-01-04T13:37:25;7.70;50.00
18577;DHT22;9418;52.694;13.294;2023-01-04T13:40:00;7.70;48.80
18577;DHT22;9418;52.694;13.294;2023-01-04T13:42:31;7.70;48.40
18577;DHT22;9418;52.694;13.294;2023-01-04T13:45:16;7.70;47.70
18577;DHT22;9418;52.694;13.294;2023-01-04T13:47:49;7.70;48.30
18577;DHT22;9418;52.694;13.294;2023-01-04T13:50:25;7.70;48.00
18577;DHT22;9418;52.694;13.294;2023-01-04T13:52:53;7.70;48.00
18577;DHT22;9418;52.694;13.294;2023-01-04T13:55:21;7.80;47.50
18577;DHT22;9418;52.694;13.294;2023-01-04T13:57:54;7.80;48.10
18577;DHT22;9418;52.694;13.294;2023-01-04T14:00:21;7.80;47.00
18577;DHT22;9418;52.694;13.294;2023-01-04T14:03:06;7.80;46.90
18577;DHT22;9418;52.694;13.294;2023-01-04T14:05:44;7.80;46.20
18577;DHT22;9418;52.694;13.294;2023-01-04T14:08:16;7.80;45.70
18577;DHT22;9418;52.694;13.294;2023-01-04T14:10:44;7.90;45.30
18577;DHT22;9418;52.694;13.294;2023-01-04T14:13:15;7.80;44.00
18577;DHT22;9418;52.694;13.294;2023-01-04T14:15:42;7.80;44.10
18577;DHT22;9418;52.694;13.294;2023-01-04T14:18:23;7.90;43.80
18577;DHT22;9418;52.694;13.294;2023-01-04T14:20:50;7.90;42.50
18577;DHT22;9418;52.694;13.294;2023-01-04T14:23:28;7.90;43.00
18577;DHT22;9418;52.694;13.294;2023-01-04T14:25:58;7.90;42.50
18577;DHT22;9418;52.694;13.294;2023-01-04T14:28:29;7.90;42.10
18577;DHT22;9418;52.694;13.294;2023-01-04T14:31:18;8.00;42.80
18577;DHT22;9418;52.694;13.294;2023-01-04T14:33:46;7.90;41.90
18577;DHT22;9418;52.694;13.294;2023-01-04T14:36:18;8.00;40.90
18577;DHT22;9418;52.694;13.294;2023-01-04T14:38:52;8.00;40.50
18577;DHT22;9418;52.694;13.294;2023-01-04T14:41:21;8.00;40.40
18577;DHT22;9418;52.694;13.294;2023-01-04T14:43:51;8.00;38.90
18577;DHT22;9418;52.694;13.294;2023-01-04T14:46:18;8.00;37.40
18577;DHT22;9418;52.694;13.294;2023-01-04T14:48:45;8.10;36.50
18577;DHT22;9418;52.694;13.294;2023-01-04T14:51:15;8.10;34.80
18577;DHT22;9418;52.694;13.294;2023-01-04T14:53:42;8.10;32.70
18577;DHT22;9418;52.694;13.294;2023-01-04T14:56:11;8.10;31.40
18577;DHT22;9418;52.694;13.294;2023-01-04T14:58:38;8.10;30.90
18577;DHT22;9418;52.694;13.294;2023-01-04T15:01:06;8.10;29.90
18577;DHT22;9418;52.694;13.294;2023-01-04T15:03:33;8.20;28.60
18577;DHT22;9418;52.694;13.294;2023-01-04T15:05:59;8.20;27.80
18577;DHT22;9418;52.694;13.294;2023-01-04T15:08:26;8.20;25.30
18577;DHT22;9418;52.694;13.294;2023-01-04T15:10:53;8.20;23.70
18577;DHT22;9418;52.694;13.294;2023-01-04T15:13:19;8.20;22.60
18577;DHT22;9418;52.694;13.294;2023-01-04T15:15:46;8.30;77.10
18577;DHT22;9418;52.694;13.294;2023-01-04T15:18:16;8.30;86.50
18577;DHT22;9418;52.694;13.294;2023-01-04T15:20:43;8.30;97.30
18577;DHT22;9418;52.694;13.294;2023-01-04T15:23:10;8.30;99.90
18577;DHT22;9418;52.694;13.294;2023-01-04T15:25:37;8.30;99.90
18577;DHT22;9418;52.694;13.294;2023-01-04T15:28:04;8.30;99.90
18577;DHT22;9418;52.694;13.294;2023-01-04T15:30:31;8.30;99.90
18577;DHT22;9418;52.694;13.294;2023-01-04T15:32:58;8.30;99.90
18577;DHT22;9418;52.694;13.294;2023-01-04T15:35:26;8.30;99.90
18577;DHT22;9418;52.694;13.294;2023-01-04T15:37:52;8.30;96.90
18577;DHT22;9418;52.694;13.294;2023-01-04T15:40:19;8.30;93.30
18577;DHT22;9418;52.694;13.294;2023-01-04T15:42:45;8.30;97.90
18577;DHT22;9418;52.694;13.294;2023-01-04T15:45:23;8.30;99.90
18577;DHT22;9418;52.694;13.294;2023-01-04T15:47:50;8.30;99.90
18577;DHT22;9418;52.694;13.294;2023-01-04T15:50:17;8.40;99.90
18577;DHT22;9418;52.694;13.294;2023-01-04T15:52:45;8.30;99.90
18577;DHT22;9418;52.694;13.294;2023-01-04T15:55:12;8.30;99.90
18577;DHT22;9418;52.694;13.294;2023-01-04T15:57:39;8.40;99.90
18577;DHT22;9418;52.694;13.294;2023-01-04T16:00:07;8.40;99.90
18577;DHT22;9418;52.694;13.294;2023-01-04T16:02:34;8.40;99.90
18577;DHT22;9418;52.694;13.294;2023-01-04T16:05:00;8.40;99.90
18577;DHT22;9418;52.694;13.294;2023-01-04T16:07:27;8.40;99.90
18577;DHT22;9418;52.694;13.294;2023-01-04T16:09:55;8.50;99.90
18577;DHT22;9418;52.694;13.294;2023-01-04T16:12:21;8.40;99.90
18577;DHT22;9418;52.694;13.294;2023-01-04T16:15:06;8.50;99.90
18577;DHT22;9418;52.694;13.294;2023-01-04T16:17:33;8.50;99.90
18577;DHT22;9418;52.694;13.294;2023-01-04T16:20:00;8.50;99.90
18577;DHT22;9418;52.694;13.294;2023-01-04T16:22:26;8.50;99.90
18577;DHT22;9418;52.694;13.294;2023-01-04T16:24:54;8.50;99.90